Time;durP1;ratioP1;P1;durP2;ratioP2;P2;SDS_P1;SDS_P2;PMS_P1;PMS_P2;Temp;Humidity;BMP_temperature;BMP_pressure;BME280_temperature;BME280_humidity;BME280_pressure;Samples;Min_cycle;Max_cycle;Signal;HPM_P1;HPM_P2
2021/03/12 00:01:20;;;;;;;;;;;;;;;20.35;32.10;100334.28;3110007;27;115038;-60
2021/03/12 00:02:52;;;;;;;;;;;;;;;20.41;32.44;100323.78;3117593;27;115285;-60
2021/03/12 00:04:23;;;;;;;;;;;;;;;20.44;32.35;100334.38;3110261;28;116903;-60
2021/03/12 00:05:56;;;;;;;;;;;;;;;20.47;32.70;100330.06;3118641;27;115495;-60
2021/03/12 00:07:27;;;;;;;;;;;;;;;20.48;32.70;100332.56;3110233;28;114020;-60
2021/03/12 00:08:58;;;;;;;;;;;;;;;20.50;32.93;100335.84;3105886;28;115410;-60
2021/03/12 00:10:45;;;;;;;;;;;;;;;20.51;33.15;100333.88;3121448;27;115306;-60
2021/03/12 00:12:16;;;;;;;;;;;;;;;20.51;32.81;100340.34;3110018;28;115119;-60
2021/03/12 00:13:47;;;;;;;;;;;;;;;20.52;32.89;100335.56;3105088;28;115346;-60
2021/03/12 00:15:20;;;;;;;;;;;;;;;20.52;32.90;100335.56;3119126;27;114453;-60
2021/03/12 00:16:51;;;;;;;;;;;;;;;20.52;33.23;100341.16;3109658;28;115391;-60
2021/03/12 00:18:24;;;;;;;;;;;;;;;20.52;33.02;100344.81;3105759;28;115661;-60
2021/03/12 00:19:55;;;;;;;;;;;;;;;20.53;33.38;100335.22;3119815;27;115157;-60
2021/03/12 00:21:26;;;;;;;;;;;;;;;20.53;33.38;100340.00;3127813;27;115324;-60
2021/03/12 00:22:57;;;;;;;;;;;;;;;20.53;33.29;100346.47;3110235;28;114586;-60
2021/03/12 00:24:28;;;;;;;;;;;;;;;20.53;33.17;100343.66;3118610;27;115909;-61
2021/03/12 00:25:59;;;;;;;;;;;;;;;20.53;33.67;100343.66;3122888;27;115668;-60
2021/03/12 00:27:31;;;;;;;;;;;;;;;20.53;33.87;100348.44;3107852;28;114641;-60
2021/03/12 00:29:06;;;;;;;;;;;;;;;20.53;33.88;100348.44;3118667;27;118077;-60
2021/03/12 00:30:38;;;;;;;;;;;;;;;20.53;34.01;100354.06;3110233;28;115773;-60
2021/03/12 00:32:09;;;;;;;;;;;;;;;20.53;33.64;100345.63;3103623;28;115923;-60
2021/03/12 00:33:40;;;;;;;;;;;;;;;20.52;33.72;100349.59;3117647;27;114391;-60
2021/03/12 00:35:11;;;;;;;;;;;;;;;20.52;34.12;100353.22;3109280;28;115645;-59
2021/03/12 00:36:42;;;;;;;;;;;;;;;20.51;34.01;100351.56;3105946;28;116208;-59
2021/03/12 00:38:14;;;;;;;;;;;;;;;20.52;34.30;100356.03;3119503;27;115673;-59
2021/03/12 00:39:45;;;;;;;;;;;;;;;20.51;34.31;100354.38;3121384;27;116176;-60
2021/03/12 00:41:16;;;;;;;;;;;;;;;20.50;34.07;100361.13;3119964;27;115911;-59
2021/03/12 00:42:47;;;;;;;;;;;;;;;20.50;34.23;100355.50;3112560;28;115647;-59
2021/03/12 00:44:19;;;;;;;;;;;;;;;20.49;34.39;100362.25;3118853;27;113849;-59
2021/03/12 00:46:00;;;;;;;;;;;;;;;20.50;34.28;100354.69;3122805;27;113890;-60
2021/03/12 00:47:31;;;;;;;;;;;;;;;20.49;34.09;100356.66;3122665;27;113804;-59
2021/03/12 00:49:02;;;;;;;;;;;;;;;20.50;34.17;100351.88;3109332;28;114054;-59
2021/03/12 00:50:34;;;;;;;;;;;;;;;20.48;34.25;100360.63;3117178;27;114337;-59
2021/03/12 00:52:06;;;;;;;;;;;;;;;20.47;34.49;100367.38;3122564;27;113872;-60
2021/03/12 00:53:37;;;;;;;;;;;;;;;20.45;34.77;100350.03;3123470;27;113997;-60
2021/03/12 00:55:08;;;;;;;;;;;;;;;20.45;34.47;100352.84;3121119;27;114059;-59
2021/03/12 00:56:39;;;;;;;;;;;;;;;20.43;34.51;100349.53;3122951;27;113927;-59
2021/03/12 00:58:10;;;;;;;;;;;;;;;20.41;34.58;100349.84;3123029;27;113630;-59
2021/03/12 00:59:41;;;;;;;;;;;;;;;20.41;34.55;100361.06;3104906;28;114060;-60
2021/03/12 01:01:12;;;;;;;;;;;;;;;20.39;34.93;100346.56;3094156;28;114256;-59
2021/03/12 01:02:44;;;;;;;;;;;;;;;20.40;34.58;100364.19;3111375;27;114022;-59
2021/03/12 01:04:15;;;;;;;;;;;;;;;20.39;34.75;100362.56;3121275;27;114139;-59
2021/03/12 01:05:46;;;;;;;;;;;;;;;20.38;34.88;100358.94;3127361;27;113990;-60
2021/03/12 01:07:17;;;;;;;;;;;;;;;20.37;34.76;100365.69;3117830;27;116791;-59
2021/03/12 01:08:48;;;;;;;;;;;;;;;20.36;34.83;100357.56;3123089;27;115048;-60
2021/03/12 01:10:20;;;;;;;;;;;;;;;20.34;34.81;100366.34;3123490;27;115177;-59
2021/03/12 01:11:51;;;;;;;;;;;;;;;20.34;34.89;100363.53;3123106;27;115031;-60
2021/03/12 01:13:22;;;;;;;;;;;;;;;20.32;34.92;100357.41;3123215;27;115017;-60
2021/03/12 01:14:53;;;;;;;;;;;;;;;20.32;34.91;100360.19;3122634;27;115260;-60
2021/03/12 01:16:24;;;;;;;;;;;;;;;20.30;35.00;100354.09;3108032;28;115080;-59
2021/03/12 01:17:56;;;;;;;;;;;;;;;20.31;35.11;100366.94;3118144;27;115361;-59
2021/03/12 01:19:27;;;;;;;;;;;;;;;20.27;34.74;100362.28;3109469;28;114278;-59
2021/03/12 01:20:58;;;;;;;;;;;;;;;20.28;35.08;100361.97;3118753;27;115251;-59
2021/03/12 01:22:29;;;;;;;;;;;;;;;20.26;35.17;100363.44;3096911;28;115109;-59
2021/03/12 01:24:00;;;;;;;;;;;;;;;20.29;35.29;100366.44;3113462;27;115188;-59
2021/03/12 01:25:37;;;;;;;;;;;;;;;20.26;35.13;100369.06;3110384;28;114924;-59
2021/03/12 01:27:08;;;;;;;;;;;;;;;20.24;35.42;100360.13;3110646;28;115657;-59
2021/03/12 01:28:39;;;;;;;;;;;;;;;20.23;35.45;100362.09;3116368;27;116149;-59
2021/03/12 01:30:15;;;;;;;;;;;;;;;20.23;35.50;100370.50;3109624;28;115659;-59
2021/03/12 01:31:46;;;;;;;;;;;;;;;20.21;35.42;100361.59;3118501;27;116179;-60
2021/03/12 01:33:18;;;;;;;;;;;;;;;20.21;35.65;100372.81;3122628;27;114705;-59
2021/03/12 01:34:49;;;;;;;;;;;;;;;20.21;35.70;100372.00;3103672;28;115755;-60
2021/03/12 01:36:21;;;;;;;;;;;;;;;20.18;35.67;100375.41;3117080;27;114852;-60
2021/03/12 01:37:52;;;;;;;;;;;;;;;20.15;35.84;100367.66;3122740;27;115780;-60
2021/03/12 01:39:23;;;;;;;;;;;;;;;20.14;35.72;100368.78;3117058;27;114568;-59
2021/03/12 01:40:54;;;;;;;;;;;;;;;20.11;35.90;100361.88;3118760;27;115870;-60
2021/03/12 01:42:25;;;;;;;;;;;;;;;20.09;36.00;100369.75;3120313;27;115884;-59
2021/03/12 01:43:56;;;;;;;;;;;;;;;20.07;35.91;100376.84;3103778;28;114640;-60
2021/03/12 01:45:29;;;;;;;;;;;;;;;20.03;36.04;100364.63;3113565;27;115689;-59
2021/03/12 01:47:00;;;;;;;;;;;;;;;20.01;36.05;100370.53;3097588;28;115727;-60
2021/03/12 01:48:31;;;;;;;;;;;;;;;19.99;36.02;100358.78;3118832;27;115615;-59
2021/03/12 01:50:04;;;;;;;;;;;;;;;19.97;36.01;100361.94;3122874;27;113660;-59
2021/03/12 01:51:35;;;;;;;;;;;;;;;19.95;36.13;100352.16;3122439;27;113762;-59
2021/03/12 01:53:09;;;;;;;;;;;;;;;19.93;36.12;100357.28;3101948;28;113910;-60
2021/03/12 01:54:40;;;;;;;;;;;;;;;19.92;36.02;100352.81;3098655;28;113935;-60
2021/03/12 01:56:11;;;;;;;;;;;;;;;19.91;36.39;100349.19;3100439;28;114112;-60
2021/03/12 01:57:42;;;;;;;;;;;;;;;19.88;36.28;100352.63;3092871;28;113889;-59
2021/03/12 01:59:13;;;;;;;;;;;;;;;19.86;36.35;100345.66;3114353;27;113782;-60
2021/03/12 02:00:44;;;;;;;;;;;;;;;19.84;36.15;100345.19;3122306;27;114025;-59
2021/03/12 02:02:16;;;;;;;;;;;;;;;19.84;36.31;100342.38;3123228;27;113759;-59
2021/03/12 02:03:47;;;;;;;;;;;;;;;19.82;36.27;100342.69;3100529;28;114639;-60
2021/03/12 02:05:18;;;;;;;;;;;;;;;19.81;36.45;100341.00;3118909;27;113931;-59
2021/03/12 02:06:49;;;;;;;;;;;;;;;19.81;36.68;100343.81;3111935;28;113862;-59
2021/03/12 02:08:20;;;;;;;;;;;;;;;19.80;36.67;100349.75;3107194;28;113778;-59
2021/03/12 02:09:52;;;;;;;;;;;;;;;19.77;36.41;100334.41;3110940;28;113746;-59
2021/03/12 02:11:23;;;;;;;;;;;;;;;19.75;36.69;100345.13;3118314;27;115008;-59
2021/03/12 02:13:03;;;;;;;;;;;;;;;19.76;36.78;100335.53;3099089;28;115117;-59
2021/03/12 02:14:39;;;;;;;;;;;;;;;19.75;36.54;100339.50;3110561;27;115154;-59
2021/03/12 02:16:14;;;;;;;;;;;;;;;19.74;36.84;100337.84;3125451;27;115414;-59
2021/03/12 02:17:53;;;;;;;;;;;;;;;19.74;36.63;100331.41;3097375;27;117023;-59
2021/03/12 02:19:34;;;;;;;;;;;;;;;19.72;36.76;100326.09;3114737;27;115122;-63
2021/03/12 02:21:08;;;;;;;;;;;;;;;19.69;36.43;100326.75;3111584;28;115132;-59
2021/03/12 02:22:42;;;;;;;;;;;;;;;19.68;36.54;100321.44;3107329;28;114999;-58
2021/03/12 02:24:14;;;;;;;;;;;;;;;19.66;36.61;100326.56;3105173;28;114462;-60
2021/03/12 02:25:49;;;;;;;;;;;;;;;19.67;36.63;100325.44;3120473;27;114715;-59
2021/03/12 02:27:22;;;;;;;;;;;;;;;19.63;36.60;100314.00;3123864;27;114058;-59
2021/03/12 02:28:54;;;;;;;;;;;;;;;19.64;36.78;100324.06;3097402;28;115187;-59
2021/03/12 02:30:26;;;;;;;;;;;;;;;19.62;36.83;100317.16;3111243;27;115084;-59
2021/03/12 02:31:58;;;;;;;;;;;;;;;19.62;36.46;100311.53;3100220;28;114148;-59
2021/03/12 02:33:30;;;;;;;;;;;;;;;19.61;36.69;100313.50;3117146;27;115684;-60
2021/03/12 02:35:04;;;;;;;;;;;;;;;19.60;36.69;100306.25;3099633;28;115618;-60
2021/03/12 02:36:37;;;;;;;;;;;;;;;19.59;36.98;100310.19;3116439;27;116218;-60
2021/03/12 02:38:09;;;;;;;;;;;;;;;19.59;36.92;100306.56;3102994;28;115813;-59
2021/03/12 02:39:45;;;;;;;;;;;;;;;19.57;36.78;100294.84;3100976;28;115801;-60
2021/03/12 02:41:18;;;;;;;;;;;;;;;19.57;37.00;100300.44;3117155;27;114573;-60
2021/03/12 02:42:49;;;;;;;;;;;;;;;19.54;37.02;100291.53;3120317;27;114762;-60
2021/03/12 02:44:21;;;;;;;;;;;;;;;19.53;36.80;100303.88;3110875;28;115789;-60
2021/03/12 02:45:53;;;;;;;;;;;;;;;19.54;36.93;100294.31;3116545;27;115641;-59
2021/03/12 02:47:27;;;;;;;;;;;;;;;19.53;36.94;100300.25;3097988;28;114483;-60
2021/03/12 02:48:59;;;;;;;;;;;;;;;19.53;36.76;100300.25;3106194;28;115900;-59
2021/03/12 02:50:30;;;;;;;;;;;;;;;19.52;37.15;100298.59;3094832;28;115815;-59
2021/03/12 02:52:02;;;;;;;;;;;;;;;19.53;36.89;100289.06;3116967;27;115726;-59
2021/03/12 02:53:34;;;;;;;;;;;;;;;19.49;37.05;100296.41;3111262;28;115753;-60
2021/03/12 02:55:07;;;;;;;;;;;;;;;19.49;36.88;100285.22;3122734;27;115828;-60
2021/03/12 02:56:39;;;;;;;;;;;;;;;19.49;36.91;100285.22;3124499;27;113894;-59
2021/03/12 02:58:10;;;;;;;;;;;;;;;19.49;36.86;100288.00;3110667;28;113679;-60
2021/03/12 02:59:42;;;;;;;;;;;;;;;19.47;36.86;100285.53;3110410;28;113679;-60
2021/03/12 03:01:13;;;;;;;;;;;;;;;19.49;36.89;100280.44;3115360;27;114072;-60
2021/03/12 03:02:47;;;;;;;;;;;;;;;19.46;36.84;100283.88;3122969;27;113999;-60
2021/03/12 03:04:20;;;;;;;;;;;;;;;19.45;36.88;100271.00;3123417;27;114003;-61
2021/03/12 03:05:52;;;;;;;;;;;;;;;19.44;36.89;100274.16;3124099;27;113812;-60
2021/03/12 03:07:24;;;;;;;;;;;;;;;19.44;36.97;100274.16;3121826;27;113798;-59
2021/03/12 03:08:55;;;;;;;;;;;;;;;19.42;36.98;100273.59;3109710;28;113921;-60
2021/03/12 03:10:26;;;;;;;;;;;;;;;19.42;36.90;100274.44;3119671;27;113711;-60
2021/03/12 03:11:58;;;;;;;;;;;;;;;19.41;36.90;100283.13;3121147;27;114095;-59
2021/03/12 03:13:30;;;;;;;;;;;;;;;19.38;36.76;100269.78;3124579;27;114218;-59
2021/03/12 03:15:02;;;;;;;;;;;;;;;19.37;36.75;100280.16;3125110;27;113714;-60
2021/03/12 03:16:36;;;;;;;;;;;;;;;19.36;37.02;100272.06;3127489;27;113936;-60
2021/03/12 03:18:07;;;;;;;;;;;;;;;19.36;37.13;100270.09;3123189;27;115196;-60
2021/03/12 03:19:40;;;;;;;;;;;;;;;19.36;37.13;100266.44;3097722;28;114084;-60
2021/03/12 03:21:13;;;;;;;;;;;;;;;19.36;36.88;100261.69;3097728;28;114099;-59
2021/03/12 03:22:44;;;;;;;;;;;;;;;19.33;37.05;100270.72;3113661;27;115204;-60
2021/03/12 03:24:15;;;;;;;;;;;;;;;19.33;36.94;100267.94;3096473;28;114067;-59
2021/03/12 03:25:46;;;;;;;;;;;;;;;19.33;36.84;100270.72;3106070;28;115162;-60
2021/03/12 03:27:17;;;;;;;;;;;;;;;19.30;36.87;100267.75;3124563;27;115701;-60
2021/03/12 03:28:49;;;;;;;;;;;;;;;19.29;36.83;100266.91;3121020;27;115564;-59
2021/03/12 03:30:21;;;;;;;;;;;;;;;19.29;36.92;100260.47;3115789;27;114092;-60
2021/03/12 03:31:52;;;;;;;;;;;;;;;19.29;36.96;100254.88;3123357;27;114675;-60
2021/03/12 03:33:23;;;;;;;;;;;;;;;19.27;37.28;100252.38;3110697;28;115637;-60
2021/03/12 03:34:55;;;;;;;;;;;;;;;19.28;37.23;100256.00;3120534;27;115117;-60
2021/03/12 03:36:26;;;;;;;;;;;;;;;19.25;37.12;100254.69;3124335;27;114403;-59
2021/03/12 03:37:57;;;;;;;;;;;;;;;19.26;37.13;100261.13;3123245;27;116205;-60
2021/03/12 03:39:28;;;;;;;;;;;;;;;19.25;37.22;100268.69;3120456;27;115695;-60
2021/03/12 03:41:02;;;;;;;;;;;;;;;19.24;37.11;100263.41;3107293;28;116731;-60
2021/03/12 03:42:35;;;;;;;;;;;;;;;19.22;37.16;100258.09;3112208;27;115678;-59
2021/03/12 03:44:06;;;;;;;;;;;;;;;19.20;37.22;100260.41;3107483;28;116105;-60
2021/03/12 03:45:37;;;;;;;;;;;;;;;19.22;37.49;100260.06;3119388;27;117188;-60
2021/03/12 03:47:09;;;;;;;;;;;;;;;19.21;37.15;100270.47;3100160;28;115640;-59
2021/03/12 03:48:41;;;;;;;;;;;;;;;19.18;37.16;100262.69;3115984;27;115722;-59
2021/03/12 03:50:14;;;;;;;;;;;;;;;19.18;37.02;100259.03;3111185;28;115683;-59
2021/03/12 03:51:46;;;;;;;;;;;;;;;19.18;37.10;100261.84;3120070;27;116279;-60
2021/03/12 03:53:17;;;;;;;;;;;;;;;19.15;37.24;100260.53;3110027;28;114581;-59
2021/03/12 03:54:50;;;;;;;;;;;;;;;19.15;37.06;100251.28;3104507;28;115790;-59
2021/03/12 03:56:22;;;;;;;;;;;;;;;19.15;37.19;100254.09;3113802;27;115716;-60
2021/03/12 03:57:53;;;;;;;;;;;;;;;19.10;37.28;100246.63;3124729;27;116143;-59
2021/03/12 03:59:25;;;;;;;;;;;;;;;19.10;37.12;100249.44;3123615;27;115688;-60
2021/03/12 04:00:56;;;;;;;;;;;;;;;19.10;37.20;100244.66;3106515;28;114112;-60
2021/03/12 04:02:28;;;;;;;;;;;;;;;19.11;37.11;100239.91;3100064;28;114161;-60
2021/03/12 04:03:59;;;;;;;;;;;;;;;19.08;37.29;100240.50;3114744;27;114407;-60
2021/03/12 04:05:31;;;;;;;;;;;;;;;19.08;37.19;100244.13;3124813;27;113682;-60
2021/03/12 04:07:02;;;;;;;;;;;;;;;19.07;37.51;100248.09;3110497;28;114174;-59
2021/03/12 04:08:34;;;;;;;;;;;;;;;19.06;37.20;100240.84;3106471;28;113648;-60
2021/03/12 04:10:07;;;;;;;;;;;;;;;19.07;37.32;100252.88;3099447;28;113694;-59
2021/03/12 04:11:38;;;;;;;;;;;;;;;19.04;37.33;100248.72;3104729;28;114128;-60
2021/03/12 04:13:11;;;;;;;;;;;;;;;19.04;37.32;100251.53;3101039;28;113983;-59
2021/03/12 04:14:42;;;;;;;;;;;;;;;19.02;37.64;100244.59;3106768;28;113929;-59
2021/03/12 04:16:13;;;;;;;;;;;;;;;19.02;37.42;100241.78;3104360;28;113713;-59
2021/03/12 04:17:45;;;;;;;;;;;;;;;18.98;37.36;100238.81;3095080;28;113848;-59
2021/03/12 04:19:16;;;;;;;;;;;;;;;18.97;37.36;100236.31;3093427;28;113892;-59
2021/03/12 04:20:48;;;;;;;;;;;;;;;18.99;37.39;100243.22;3105477;28;114267;-59
2021/03/12 04:22:19;;;;;;;;;;;;;;;18.99;37.61;100234.84;3108113;28;113831;-59
2021/03/12 04:23:50;;;;;;;;;;;;;;;18.95;37.27;100232.97;3119772;27;115982;-59
2021/03/12 04:25:22;;;;;;;;;;;;;;;18.94;37.55;100228.56;3121531;27;115701;-60
2021/03/12 04:26:53;;;;;;;;;;;;;;;18.92;37.33;100228.84;3123365;27;114560;-59
2021/03/12 04:28:24;;;;;;;;;;;;;;;18.93;37.53;100224.91;3106861;28;115392;-59
2021/03/12 04:29:56;;;;;;;;;;;;;;;18.94;37.50;100225.75;3117153;27;114454;-59
2021/03/12 04:31:28;;;;;;;;;;;;;;;18.91;37.78;100227.19;3115658;27;114153;-60
2021/03/12 04:33:00;;;;;;;;;;;;;;;18.90;37.74;100225.53;3123842;27;115194;-59
2021/03/12 04:34:32;;;;;;;;;;;;;;;18.92;37.77;100220.47;3099439;28;115320;-59
2021/03/12 04:36:04;;;;;;;;;;;;;;;18.91;37.77;100213.19;3119885;27;115366;-59
2021/03/12 04:37:35;;;;;;;;;;;;;;;18.89;37.83;100212.69;3116783;27;115081;-59
2021/03/12 04:39:07;;;;;;;;;;;;;;;18.89;38.06;100214.66;3120541;27;115220;-59
2021/03/12 04:40:38;;;;;;;;;;;;;;;18.88;37.94;100204.63;3108658;28;115511;-59
2021/03/12 04:42:11;;;;;;;;;;;;;;;18.89;38.00;100203.47;3098920;28;114016;-61
2021/03/12 04:43:52;;;;;;;;;;;;;;;18.87;37.79;100200.97;3105349;28;115171;-59
2021/03/12 04:45:23;;;;;;;;;;;;;;;18.87;38.08;100189.78;3104243;28;115942;-59
2021/03/12 04:46:54;;;;;;;;;;;;;;;18.87;38.03;100184.19;3110893;28;115795;-60
2021/03/12 04:48:25;;;;;;;;;;;;;;;18.84;38.23;100181.19;3110809;28;114773;-60
2021/03/12 04:49:56;;;;;;;;;;;;;;;18.85;38.10;100180.06;3111552;27;115720;-59
2021/03/12 04:51:28;;;;;;;;;;;;;;;18.84;38.11;100170.00;3105987;28;115641;-59
2021/03/12 04:52:59;;;;;;;;;;;;;;;18.84;38.01;100170.00;3109939;28;115764;-60
2021/03/12 04:54:30;;;;;;;;;;;;;;;18.83;38.26;100168.34;3105289;28;114751;-60
2021/03/12 04:56:01;;;;;;;;;;;;;;;18.82;38.04;100170.31;3110200;28;115676;-59
2021/03/12 04:57:34;;;;;;;;;;;;;;;18.83;37.96;100171.16;3108709;27;115879;-60
2021/03/12 04:59:06;;;;;;;;;;;;;;;18.81;38.31;100167.81;3109999;27;116195;-60
2021/03/12 05:00:37;;;;;;;;;;;;;;;18.78;38.22;100172.09;3108623;27;114609;-60
2021/03/12 05:02:08;;;;;;;;;;;;;;;18.77;38.41;100158.41;3111418;27;116174;-59
2021/03/12 05:03:39;;;;;;;;;;;;;;;18.77;38.14;100164.81;3105669;27;115862;-60
2021/03/12 05:05:11;;;;;;;;;;;;;;;18.75;38.10;100158.75;3105713;27;117110;-60
2021/03/12 05:06:42;;;;;;;;;;;;;;;18.74;38.18;100161.84;3097509;28;114028;-60
2021/03/12 05:08:14;;;;;;;;;;;;;;;18.73;38.29;100169.41;3107252;28;113679;-60
2021/03/12 05:09:45;;;;;;;;;;;;;;;18.74;38.10;100168.28;3097950;28;113806;-59
2021/03/12 05:11:16;;;;;;;;;;;;;;;18.73;38.22;100155.41;3105856;28;114036;-59
2021/03/12 05:12:47;;;;;;;;;;;;;;;18.72;38.24;100161.31;3110206;28;113955;-59
2021/03/12 05:14:31;;;;;;;;;;;;;;;18.70;38.20;100167.25;3110658;28;113674;-59
2021/03/12 05:16:02;;;;;;;;;;;;;;;18.67;38.47;100165.06;3110846;28;113714;-59
2021/03/12 05:17:33;;;;;;;;;;;;;;;18.65;38.07;100159.78;3110002;28;113668;-59
2021/03/12 05:19:04;;;;;;;;;;;;;;;18.69;38.19;100164.75;3109564;28;113748;-59
2021/03/12 05:20:35;;;;;;;;;;;;;;;18.66;38.16;100152.25;3096323;28;113896;-59
2021/03/12 05:22:06;;;;;;;;;;;;;;;18.62;38.32;100166.00;3100345;28;113916;-59
2021/03/12 05:23:37;;;;;;;;;;;;;;;18.63;38.08;100162.06;3099068;28;113708;-59
2021/03/12 05:25:09;;;;;;;;;;;;;;;18.63;38.33;100164.03;3109212;28;113728;-59
2021/03/12 05:26:40;;;;;;;;;;;;;;;18.63;38.21;100164.03;3105336;27;113825;-58
2021/03/12 05:28:11;;;;;;;;;;;;;;;18.68;38.33;100155.53;3099297;28;115647;-59
2021/03/12 05:29:42;;;;;;;;;;;;;;;18.74;38.18;100154.28;3098441;28;115878;-59
2021/03/12 05:31:13;;;;;;;;;;;;;;;18.80;38.73;100153.03;3104795;28;115090;-59
2021/03/12 05:32:44;;;;;;;;;;;;;;;18.81;38.79;100151.84;3109225;28;117077;-59
2021/03/12 05:34:15;;;;;;;;;;;;;;;18.86;38.85;100156.50;3098882;28;113988;-59
2021/03/12 05:35:47;;;;;;;;;;;;;;;18.88;38.95;100155.06;3105840;28;114061;-60
2021/03/12 05:37:17;;;;;;;;;;;;;;;18.91;39.14;100150.78;3110026;28;115121;-59
2021/03/12 05:38:49;;;;;;;;;;;;;;;18.94;39.26;100155.78;3110437;28;115951;-59
2021/03/12 05:40:20;;;;;;;;;;;;;;;18.96;38.93;100145.91;3105062;28;115755;-60
2021/03/12 05:41:51;;;;;;;;;;;;;;;19.02;38.63;100133.44;3104288;28;115507;-59
2021/03/12 05:43:22;;;;;;;;;;;;;;;19.04;38.54;100133.94;3104554;28;114220;-59
2021/03/12 05:44:57;;;;;;;;;;;;;;;19.08;38.32;100134.94;3108528;28;115130;-59
2021/03/12 05:46:28;;;;;;;;;;;;;;;19.11;38.34;100133.50;3109708;28;114261;-59
2021/03/12 05:47:59;;;;;;;;;;;;;;;19.15;38.27;100131.72;3109793;28;115459;-59
2021/03/12 05:49:31;;;;;;;;;;;;;;;19.20;38.37;100133.56;3103512;28;115861;-59
2021/03/12 05:51:03;;;;;;;;;;;;;;;19.25;38.56;100127.81;3111256;28;116099;-59
2021/03/12 05:52:34;;;;;;;;;;;;;;;19.29;38.85;100137.25;3108562;28;115789;-60
2021/03/12 05:54:05;;;;;;;;;;;;;;;19.34;38.66;100135.13;3095493;28;115635;-60
2021/03/12 05:55:36;;;;;;;;;;;;;;;19.40;38.96;100133.84;3107344;28;115856;-59
2021/03/12 05:57:08;;;;;;;;;;;;;;;19.45;39.08;100135.72;3106474;28;115869;-60
2021/03/12 05:58:39;;;;;;;;;;;;;;;19.50;39.50;100133.59;3105039;28;115717;-60
2021/03/12 06:00:10;;;;;;;;;;;;;;;19.55;39.15;100129.84;3107182;28;115705;-60
2021/03/12 06:01:41;;;;;;;;;;;;;;;19.59;38.95;100121.59;3105056;28;115165;-59
2021/03/12 06:03:14;;;;;;;;;;;;;;;19.66;38.89;100127.59;3109307;28;116399;-60
2021/03/12 06:04:45;;;;;;;;;;;;;;;19.68;38.56;100114.91;3103893;28;115868;-60
2021/03/12 06:06:16;;;;;;;;;;;;;;;19.73;38.80;100114.75;3105325;28;115816;-59
2021/03/12 06:07:48;;;;;;;;;;;;;;;19.78;38.55;100111.81;3105730;28;115758;-60
2021/03/12 06:09:19;;;;;;;;;;;;;;;19.84;38.52;100118.94;3105328;28;114684;-59
2021/03/12 06:10:51;;;;;;;;;;;;;;;19.89;39.12;100121.59;3111345;28;115925;-59
2021/03/12 06:12:21;;;;;;;;;;;;;;;19.94;38.93;100112.22;3107106;28;113825;-61
2021/03/12 06:13:53;;;;;;;;;;;;;;;20.00;39.05;100113.69;3109265;28;113834;-59
2021/03/12 06:15:34;;;;;;;;;;;;;;;20.04;38.77;100119.47;3093067;28;113799;-59
2021/03/12 06:17:05;;;;;;;;;;;;;;;20.09;38.40;100114.56;3098545;28;113818;-59
2021/03/12 06:18:36;;;;;;;;;;;;;;;20.13;38.38;100118.34;3097060;28;113780;-59
2021/03/12 06:20:09;;;;;;;;;;;;;;;20.19;38.48;100107.81;3104027;28;113968;-59
2021/03/12 06:21:42;;;;;;;;;;;;;;;20.22;38.05;100104.34;3104235;28;114175;-60
2021/03/12 06:23:31;;;;;;;;;;;;;;;20.25;38.32;100104.53;3106343;28;113777;-59
2021/03/12 06:25:12;;;;;;;;;;;;;;;20.31;38.20;100094.81;3098747;28;114533;-59
2021/03/12 06:26:44;;;;;;;;;;;;;;;20.36;37.99;100102.25;3097652;28;114081;-60
2021/03/12 06:28:17;;;;;;;;;;;;;;;20.40;38.19;100106.06;3107054;28;113869;-60
2021/03/12 06:29:48;;;;;;;;;;;;;;;20.44;37.96;100109.06;3107179;28;113975;-59
2021/03/12 06:31:30;;;;;;;;;;;;;;;20.48;37.77;100108.06;3108166;28;113811;-59
2021/03/12 06:33:02;;;;;;;;;;;;;;;20.52;37.71;100105.44;3114095;27;113680;-59
2021/03/12 06:34:33;;;;;;;;;;;;;;;20.55;37.70;100104.75;3108506;28;114707;-60
2021/03/12 06:36:04;;;;;;;;;;;;;;;20.58;37.35;100098.50;3108804;28;115033;-59
2021/03/12 06:37:40;;;;;;;;;;;;;;;20.63;37.67;100092.69;3105802;28;115130;-60
2021/03/12 06:39:11;;;;;;;;;;;;;;;20.66;37.47;100094.88;3100257;28;115210;-60
2021/03/12 06:40:42;;;;;;;;;;;;;;;20.70;37.16;100084.63;3108631;28;115197;-60
2021/03/12 06:42:13;;;;;;;;;;;;;;;20.72;36.91;100091.56;3110067;27;115087;-59
2021/03/12 06:43:44;;;;;;;;;;;;;;;20.75;37.06;100093.72;3119645;27;115124;-59
2021/03/12 06:45:21;;;;;;;;;;;;;;;20.79;37.29;100093.88;3124798;27;115193;-60
2021/03/12 06:46:52;;;;;;;;;;;;;;;20.82;36.94;100084.78;3116744;27;115215;-59
2021/03/12 06:48:25;;;;;;;;;;;;;;;20.84;36.76;100080.50;3099673;28;115473;-60
2021/03/12 06:49:57;;;;;;;;;;;;;;;20.89;36.98;100089.91;3102227;28;115181;-60
2021/03/12 06:51:28;;;;;;;;;;;;;;;20.91;36.83;100077.19;3112031;27;115203;-60
2021/03/12 06:52:59;;;;;;;;;;;;;;;20.96;36.56;100087.41;3124509;27;115075;-60
2021/03/12 06:54:32;;;;;;;;;;;;;;;20.98;36.44;100088.75;3127180;27;114115;-59
2021/03/12 06:56:05;;;;;;;;;;;;;;;21.02;36.43;100088.91;3108115;28;115768;-59
2021/03/12 06:57:36;;;;;;;;;;;;;;;21.04;36.44;100086.56;3101369;28;115109;-60
2021/03/12 06:59:07;;;;;;;;;;;;;;;21.08;36.38;100087.53;3102233;28;115902;-60
2021/03/12 07:00:38;;;;;;;;;;;;;;;21.10;36.53;100090.88;3116672;27;114648;-59
2021/03/12 07:02:09;;;;;;;;;;;;;;;21.12;36.13;100080.13;3111409;28;115841;-59
2021/03/12 07:03:40;;;;;;;;;;;;;;;21.16;36.52;100086.75;3107329;28;115423;-60
2021/03/12 07:05:11;;;;;;;;;;;;;;;21.16;36.54;100081.97;3119533;27;115795;-59
2021/03/12 07:06:44;;;;;;;;;;;;;;;21.20;36.40;100073.69;3119902;27;115750;-60
2021/03/12 07:08:24;;;;;;;;;;;;;;;21.23;36.23;100073.03;3109703;28;114840;-60
2021/03/12 07:09:57;;;;;;;;;;;;;;;21.25;36.16;100073.53;3121723;27;115645;-60
2021/03/12 07:11:28;;;;;;;;;;;;;;;21.30;36.27;100073.34;3110226;28;114887;-60
2021/03/12 07:13:00;;;;;;;;;;;;;;;21.31;36.41;100074.97;3105341;28;116050;-60
2021/03/12 07:14:31;;;;;;;;;;;;;;;21.35;36.29;100064.72;3119750;27;114597;-59
2021/03/12 07:16:03;;;;;;;;;;;;;;;21.38;37.02;100066.88;3115151;28;115707;-60
2021/03/12 07:17:34;;;;;;;;;;;;;;;21.42;37.35;100067.00;3110288;27;114368;-60
2021/03/12 07:19:05;;;;;;;;;;;;;;;21.44;36.83;100062.69;3112437;27;113919;-59
2021/03/12 07:20:36;;;;;;;;;;;;;;;21.47;36.33;100050.81;3117195;27;113830;-60
2021/03/12 07:22:09;;;;;;;;;;;;;;;21.49;36.75;100061.69;3111714;28;113781;-60
2021/03/12 07:23:41;;;;;;;;;;;;;;;21.52;36.53;100056.25;3119963;27;113701;-60
2021/03/12 07:25:13;;;;;;;;;;;;;;;21.55;36.56;100058.38;3125793;27;113780;-60
2021/03/12 07:26:45;;;;;;;;;;;;;;;21.58;36.82;100054.03;3111395;28;113990;-59
2021/03/12 07:28:17;;;;;;;;;;;;;;;21.61;36.46;100061.81;3098109;28;113725;-59
2021/03/12 07:29:48;;;;;;;;;;;;;;;21.64;36.39;100053.53;3118885;27;114025;-59
2021/03/12 07:31:21;;;;;;;;;;;;;;;21.67;36.28;100050.03;3110845;28;113953;-59
2021/03/12 07:32:53;;;;;;;;;;;;;;;21.69;36.21;100047.72;3120301;27;113996;-59
2021/03/12 07:34:26;;;;;;;;;;;;;;;21.71;36.34;100034.13;3122582;27;113814;-59
2021/03/12 07:35:59;;;;;;;;;;;;;;;21.75;36.23;100034.31;3124808;27;113746;-59
2021/03/12 07:37:32;;;;;;;;;;;;;;;21.78;36.35;100036.44;3110604;28;114019;-59
2021/03/12 07:39:04;;;;;;;;;;;;;;;21.80;36.14;100034.13;3109325;28;114124;-59
2021/03/12 07:40:35;;;;;;;;;;;;;;;21.83;36.25;100029.78;3100476;28;115147;-60
2021/03/12 07:42:08;;;;;;;;;;;;;;;21.84;36.26;100023.81;3095157;28;115519;-60
2021/03/12 07:43:47;;;;;;;;;;;;;;;21.85;36.19;100031.06;3107494;27;115087;-61
2021/03/12 07:45:18;;;;;;;;;;;;;;;21.87;36.14;100022.31;3110285;28;115140;-60
2021/03/12 07:46:50;;;;;;;;;;;;;;;21.89;36.01;100020.00;3120433;27;115114;-60
2021/03/12 07:48:26;;;;;;;;;;;;;;;21.89;36.15;100017.19;3109641;28;114125;-60